• Join FlightAware (Why Join?)
  • Login
  • US Flag 
12:21AM EDT


 

Airport Tracker/Info


-or-


 

Live Flight TrackerFlight Track Log ✈ CTL13 ✈ 09-May-2013 ✈ KBKL - KEYE

Flight Track Log - Related Links

Times and Time Zones

All times are in EDT time to prevent confusion due to time zone crossing. See the CTL13 flight status page for this flight to view local times or setup timezone preferences in your user account.

Time Position Orientation Groundspeed Altitude Reporting Facility
EDT Latitude Longitude Course Direction KTS MPH feet Rate Location/Type
06:30PM 41.5336 -81.6789 341° North 128 147 1,200  Level Cleveland Center
06:31PM 41.5647 -81.6933 341° North 135 155 2,000 900 Climbing Cleveland Center
06:32PM 41.5978 -81.7214 328° Northwest 139 160 3,000 540 Climbing Cleveland Center
06:33PM 41.6267 -81.7608 314° West 169 194 3,100 480 Climbing Cleveland Center
06:34PM 41.6303 -81.8139 275° West 139 160 4,000 660 Climbing Cleveland Center
06:35PM 41.6275 -81.8694 266° West 150 173 4,500 540 Climbing Cleveland Center
06:36PM 41.6186 -81.9192 257° West 142 163 5,100 540 Climbing Cleveland Center
06:37PM 41.6117 -81.9744 260° West 143 165 5,700 480 Climbing Cleveland Center
06:38PM 41.5922 -82.0242 242° Southwest 148 170 6,100 180 Climbing Cleveland Center
06:39PM 41.5689 -82.0736 238° Southwest 165 190 6,100  Level Cleveland Center
06:40PM 41.5450 -82.1283 240° Southwest 160 184 6,100  Level Cleveland Center
06:41PM 41.5236 -82.1750 239° Southwest 157 181 6,100  Level Cleveland Center
06:42PM 41.5000 -82.2244 237° Southwest 156 180 6,100  Level Cleveland Center
06:43PM 41.4783 -82.2764 241° Southwest 156 180 6,100  Level Cleveland Center
06:44PM 41.4567 -82.3258 240° Southwest 154 177 6,100 -60 Level Cleveland Center
06:46PM 41.4276 -82.3795 234° Southwest  Level FlightAware Approximate
06:53PM 41.2636 -82.7046 240° Southwest  Level FlightAware Approximate
06:54PM 41.2424 -82.7528 240° Southwest  Level FlightAware Approximate
06:55PM 41.2212 -82.8010 240° Southwest  Level FlightAware Approximate
06:56PM 41.2000 -82.8491 240° Southwest  Level FlightAware Approximate
06:57PM 41.1788 -82.8972 240° Southwest  Level FlightAware Approximate
06:58PM 41.1576 -82.9453 240° Southwest  Level FlightAware Approximate
06:59PM 41.1363 -82.9933 240° Southwest  Level FlightAware Approximate
07:00PM 41.1134 -83.0400 237° Southwest  Level FlightAware Approximate
07:01PM 41.0902 -83.0865 237° Southwest  Level FlightAware Approximate
07:02PM 41.0671 -83.1329 236° Southwest  Level FlightAware Approximate
07:03PM 41.0499 -83.1828 246° West  Level FlightAware Approximate
07:04PM 41.0327 -83.2327 245° Southwest  Level FlightAware Approximate
07:05PM 41.0155 -83.2826 245° Southwest  Level FlightAware Approximate
07:06PM 40.9983 -83.3325 245° Southwest  Level FlightAware Approximate
07:07PM 40.9810 -83.3823 245° Southwest  Level FlightAware Approximate
07:08PM 40.9637 -83.4321 245° Southwest  Level FlightAware Approximate
07:08PM 40.9072 -83.4939 245° Southwest 164 189 6,000  Level Indianapolis Center
07:09PM 40.9464 -83.4819 245° Southwest  Level FlightAware Approximate
07:09PM 40.8850 -83.5422 239° Southwest 161 185 5,900  Level Indianapolis Center
07:10PM 40.9291 -83.5317 245° Southwest  Level FlightAware Approximate
07:10PM 40.8567 -83.5997 237° Southwest 160 184 5,900  Level Indianapolis Center
07:11PM 40.9118 -83.5814 245° Southwest  Level FlightAware Approximate
07:11PM 40.8331 -83.6489 238° Southwest 157 181 6,000  Level Indianapolis Center
07:12PM 40.8944 -83.6311 245° Southwest  Level FlightAware Approximate
07:12PM 40.8086 -83.6983 237° Southwest 159 183 5,900  Level Indianapolis Center
07:13PM 40.8770 -83.6808 245° Southwest  Level FlightAware Approximate
07:13PM 40.7836 -83.7483 237° Southwest 161 185 5,900  Level Indianapolis Center
07:14PM 40.8596 -83.7305 245° Southwest  Level FlightAware Approximate
07:14PM 40.7597 -83.7983 238° Southwest 160 184 5,900  Level Indianapolis Center
07:16PM 40.7361 -83.8467 237° Southwest 159 183 6,000  Climbing Indianapolis Center
07:17PM 40.7111 -83.8944 235° Southwest 158 182 5,900  Descending Indianapolis Center
07:17PM 40.6864 -83.9461 238° Southwest 157 181 6,000  Climbing Indianapolis Center
07:19PM 40.6622 -84.0017 240° Southwest 157 181 5,900 60 Descending Indianapolis Center
07:19PM 40.6536 -84.0189 237° Southwest 157 181 6,100 60 Climbing Indianapolis Center
07:20PM 40.6292 -84.0650 235° Southwest 155 178 6,000 -120 Descending Indianapolis Center
07:21PM 40.6133 -84.0972 237° Southwest 157 181 5,900 60 Descending Indianapolis Center
07:21PM 40.6047 -84.1114 231° Southwest 156 180 6,100  Climbing Indianapolis Center
07:22PM 40.5894 -84.1431 238° Southwest 154 177 5,900 -60 Descending Indianapolis Center
07:23PM 40.5642 -84.1917 236° Southwest 157 181 6,000  Climbing Indianapolis Center
07:24PM 40.5408 -84.2408 238° Southwest 157 181 5,900  Descending Indianapolis Center
07:25PM 40.5103 -84.2992 235° Southwest 157 181 6,000  Climbing Indianapolis Center
07:26PM 40.4900 -84.3431 239° Southwest 155 178 6,000  Level Indianapolis Center
07:27PM 40.4631 -84.3944 235° Southwest 158 182 6,000  Level Indianapolis Center
07:28PM 40.4383 -84.4403 235° Southwest 156 180 6,100  Climbing Indianapolis Center
07:29PM 40.4136 -84.4864 235° Southwest 160 184 6,000 -60 Descending Indianapolis Center
07:30PM 40.3900 -84.5358 238° Southwest 155 178 6,000 -300 Level Indianapolis Center
07:31PM 40.3653 -84.5847 236° Southwest 158 182 5,400 -840 Descending Indianapolis Center
07:32PM 40.3375 -84.6406 237° Southwest 173 199 4,300 -780 Descending Indianapolis Center
07:33PM 40.3092 -84.6928 235° Southwest 173 199 3,900 -180 Descending Indianapolis Center
07:34PM 40.2861 -84.7397 237° Southwest 142 163 4,000 -420 Climbing Indianapolis Center
07:35PM 40.2667 -84.7697 230° Southwest 120 138 3,100 -480 Descending Indianapolis Center
07:36PM 40.2517 -84.8044 240° Southwest 120 138 3,000  Descending Indianapolis Center
07:37PM 40.2336 -84.8389 236° Southwest 99 114 3,100  Climbing Indianapolis Center
07:38PM 40.2117 -84.8769 233° Southwest 134 154 3,100  Level Indianapolis Center
07:39PM 40.1914 -84.9178 237° Southwest 143 165 3,100  Level Indianapolis Center
07:40PM 40.1711 -84.9586 237° Southwest 136 157 3,100  Level Indianapolis Center
07:41PM 40.1506 -85.0047 240° Southwest 135 155 3,100  Level Indianapolis Center
07:42PM 40.1306 -85.0403 234° Southwest 134 154 3,100  Level Indianapolis Center
07:43PM 40.1083 -85.0806 234° Southwest 134 154 3,100 -60 Level Indianapolis Center
07:44PM 40.0856 -85.1247 236° Southwest 137 158 3,000  Descending Indianapolis Center
07:45PM 40.0678 -85.1619 238° Southwest 139 160 3,100  Climbing Indianapolis Center
07:45PM 40.0625 -85.1758 244° Southwest 138 159 3,000 -120 Descending Indianapolis Center
07:46PM 40.0531 -85.2092 250° West 146 168 3,000  Level Indianapolis Center
07:46PM 40.0481 -85.2236 246° West 139 160 3,000  Level Indianapolis Center
07:47PM 40.0375 -85.2769 256° West 145 167 3,000  Level Indianapolis Center
07:48PM 40.0281 -85.3306 257° West 149 171 3,000  Level Indianapolis Center
07:49PM 40.0183 -85.3839 257° West 151 174 3,000  Level Indianapolis Center
07:50PM 40.0083 -85.4369 256° West 151 174 3,100  Climbing Indianapolis Center
07:51PM 39.9967 -85.4922 255° West 155 178 3,000 -60 Descending Indianapolis Center
07:52PM 39.9847 -85.5608 257° West 159 183 3,000  Level Indianapolis Center
07:54PM 39.9736 -85.6183 256° West 161 185 3,000  Level Indianapolis Center
07:55PM 39.9628 -85.6744 256° West 162 186 3,000  Level Indianapolis Center
07:56PM 39.9586 -85.7314 265° West 160 184 3,000  Level Indianapolis Center
07:57PM 39.9567 -85.7908 268° West 161 185 3,000  Level Indianapolis Center